sensor_id;sensor_type;location;lat;lon;timestamp;pressure;altitude;pressure_sealevel;temperature;humidity
13867;BME280;7003;46.982;15.248;2023-02-18T00:01:25;97625.97;;;4.16;100.00
13867;BME280;7003;46.982;15.248;2023-02-18T00:03:58;97634.91;;;4.20;100.00
13867;BME280;7003;46.982;15.248;2023-02-18T00:06:27;97634.59;;;4.27;100.00
13867;BME280;7003;46.982;15.248;2023-02-18T00:08:55;97629.63;;;4.25;100.00
13867;BME280;7003;46.982;15.248;2023-02-18T00:11:23;97631.66;;;4.39;100.00
13867;BME280;7003;46.982;15.248;2023-02-18T00:13:52;97628.59;;;4.60;100.00
13867;BME280;7003;46.982;15.248;2023-02-18T00:16:21;97629.00;;;4.39;100.00
13867;BME280;7003;46.982;15.248;2023-02-18T00:18:49;97630.56;;;4.45;100.00
13867;BME280;7003;46.982;15.248;2023-02-18T00:21:16;97636.06;;;4.48;100.00
13867;BME280;7003;46.982;15.248;2023-02-18T00:23:46;97625.72;;;4.57;100.00
13867;BME280;7003;46.982;15.248;2023-02-18T00:26:17;97644.09;;;4.67;100.00
13867;BME280;7003;46.982;15.248;2023-02-18T00:28:46;97641.59;;;4.86;100.00
13867;BME280;7003;46.982;15.248;2023-02-18T00:31:18;97636.25;;;4.57;100.00
13867;BME280;7003;46.982;15.248;2023-02-18T00:33:47;97640.59;;;4.38;100.00
13867;BME280;7003;46.982;15.248;2023-02-18T00:36:19;97662.47;;;4.38;100.00
13867;BME280;7003;46.982;15.248;2023-02-18T00:38:47;97638.41;;;4.50;100.00
13867;BME280;7003;46.982;15.248;2023-02-18T00:41:17;97634.28;;;4.39;100.00
13867;BME280;7003;46.982;15.248;2023-02-18T00:43:47;97637.91;;;4.48;100.00
13867;BME280;7003;46.982;15.248;2023-02-18T00:46:16;97637.03;;;4.57;100.00
13867;BME280;7003;46.982;15.248;2023-02-18T00:48:44;97650.53;;;4.51;100.00
13867;BME280;7003;46.982;15.248;2023-02-18T00:51:12;97642.34;;;4.52;100.00
13867;BME280;7003;46.982;15.248;2023-02-18T00:53:42;97650.00;;;4.54;100.00
13867;BME280;7003;46.982;15.248;2023-02-18T00:56:12;97658.47;;;4.46;100.00
13867;BME280;7003;46.982;15.248;2023-02-18T00:58:39;97643.44;;;4.46;100.00
13867;BME280;7003;46.982;15.248;2023-02-18T01:01:07;97643.09;;;4.63;100.00
13867;BME280;7003;46.982;15.248;2023-02-18T01:03:38;97641.44;;;4.72;100.00
13867;BME280;7003;46.982;15.248;2023-02-18T01:06:07;97644.31;;;4.76;100.00
13867;BME280;7003;46.982;15.248;2023-02-18T01:08:37;97643.41;;;4.56;100.00
13867;BME280;7003;46.982;15.248;2023-02-18T01:11:09;97638.19;;;4.46;100.00
13867;BME280;7003;46.982;15.248;2023-02-18T01:13:37;97636.91;;;4.39;100.00
13867;BME280;7003;46.982;15.248;2023-02-18T01:16:09;97630.59;;;4.35;100.00
13867;BME280;7003;46.982;15.248;2023-02-18T01:18:37;97633.13;;;4.50;100.00
13867;BME280;7003;46.982;15.248;2023-02-18T01:21:07;97622.13;;;4.43;100.00
13867;BME280;7003;46.982;15.248;2023-02-18T01:23:36;97639.59;;;4.29;100.00
13867;BME280;7003;46.982;15.248;2023-02-18T01:26:06;97634.66;;;4.17;100.00
13867;BME280;7003;46.982;15.248;2023-02-18T01:28:33;97649.75;;;3.96;100.00
13867;BME280;7003;46.982;15.248;2023-02-18T01:31:04;97637.69;;;3.90;100.00
13867;BME280;7003;46.982;15.248;2023-02-18T01:33:32;97646.63;;;3.89;100.00
13867;BME280;7003;46.982;15.248;2023-02-18T01:35:59;97640.09;;;3.76;100.00
13867;BME280;7003;46.982;15.248;2023-02-18T01:38:26;97633.84;;;3.62;100.00
13867;BME280;7003;46.982;15.248;2023-02-18T01:40:54;97641.38;;;3.84;100.00
13867;BME280;7003;46.982;15.248;2023-02-18T01:43:24;97638.19;;;3.92;100.00
13867;BME280;7003;46.982;15.248;2023-02-18T01:46:06;97633.03;;;3.67;100.00
13867;BME280;7003;46.982;15.248;2023-02-18T01:48:36;97630.97;;;3.54;100.00
13867;BME280;7003;46.982;15.248;2023-02-18T01:51:10;97623.59;;;3.56;100.00
13867;BME280;7003;46.982;15.248;2023-02-18T01:53:46;97624.38;;;3.61;100.00
13867;BME280;7003;46.982;15.248;2023-02-18T01:56:21;97624.28;;;3.86;100.00
13867;BME280;7003;46.982;15.248;2023-02-18T01:58:49;97619.06;;;3.76;100.00
13867;BME280;7003;46.982;15.248;2023-02-18T02:01:21;97622.97;;;3.84;100.00
13867;BME280;7003;46.982;15.248;2023-02-18T02:03:50;97625.06;;;3.82;100.00
13867;BME280;7003;46.982;15.248;2023-02-18T02:06:20;97612.97;;;3.86;100.00
13867;BME280;7003;46.982;15.248;2023-02-18T02:08:53;97621.91;;;3.85;100.00
13867;BME280;7003;46.982;15.248;2023-02-18T02:11:34;97622.19;;;3.83;100.00
13867;BME280;7003;46.982;15.248;2023-02-18T02:14:17;97617.75;;;3.69;100.00
13867;BME280;7003;46.982;15.248;2023-02-18T02:16:54;97617.03;;;3.43;100.00
13867;BME280;7003;46.982;15.248;2023-02-18T02:19:57;97622.06;;;3.39;100.00
13867;BME280;7003;46.982;15.248;2023-02-18T02:32:06;97599.63;;;3.62;100.00
13867;BME280;7003;46.982;15.248;2023-02-18T02:34:51;97603.88;;;3.53;100.00
13867;BME280;7003;46.982;15.248;2023-02-18T02:37:25;97585.81;;;3.21;100.00
13867;BME280;7003;46.982;15.248;2023-02-18T02:40:02;97594.16;;;3.43;100.00
13867;BME280;7003;46.982;15.248;2023-02-18T02:42:39;97594.72;;;3.40;100.00
13867;BME280;7003;46.982;15.248;2023-02-18T02:45:18;97597.56;;;3.49;100.00
13867;BME280;7003;46.982;15.248;2023-02-18T02:47:50;97593.69;;;3.26;100.00
13867;BME280;7003;46.982;15.248;2023-02-18T02:50:27;97593.97;;;3.25;100.00
13867;BME280;7003;46.982;15.248;2023-02-18T02:52:59;97590.28;;;3.31;100.00
13867;BME280;7003;46.982;15.248;2023-02-18T02:55:27;97587.63;;;3.31;100.00
13867;BME280;7003;46.982;15.248;2023-02-18T02:57:55;97584.91;;;3.61;100.00
13867;BME280;7003;46.982;15.248;2023-02-18T03:00:32;97586.56;;;3.37;100.00
13867;BME280;7003;46.982;15.248;2023-02-18T03:03:29;97580.56;;;3.21;100.00
13867;BME280;7003;46.982;15.248;2023-02-18T03:06:19;97582.44;;;3.05;100.00
13867;BME280;7003;46.982;15.248;2023-02-18T03:09:00;97582.69;;;3.14;100.00
13867;BME280;7003;46.982;15.248;2023-02-18T03:11:40;97577.44;;;3.09;100.00
13867;BME280;7003;46.982;15.248;2023-02-18T03:14:12;97570.28;;;3.30;100.00
13867;BME280;7003;46.982;15.248;2023-02-18T03:16:44;97575.28;;;3.26;100.00
13867;BME280;7003;46.982;15.248;2023-02-18T03:19:19;97572.13;;;3.29;100.00
13867;BME280;7003;46.982;15.248;2023-02-18T03:21:53;97579.19;;;3.34;100.00
13867;BME280;7003;46.982;15.248;2023-02-18T03:24:26;97584.19;;;3.35;100.00
13867;BME280;7003;46.982;15.248;2023-02-18T03:26:59;97592.84;;;3.46;100.00
13867;BME280;7003;46.982;15.248;2023-02-18T03:29:31;97590.81;;;3.23;100.00
13867;BME280;7003;46.982;15.248;2023-02-18T03:32:03;97588.47;;;3.16;100.00
13867;BME280;7003;46.982;15.248;2023-02-18T03:34:34;97589.78;;;3.08;100.00
13867;BME280;7003;46.982;15.248;2023-02-18T03:37:08;97592.94;;;3.16;100.00
13867;BME280;7003;46.982;15.248;2023-02-18T03:39:40;97588.97;;;3.13;100.00
13867;BME280;7003;46.982;15.248;2023-02-18T03:42:09;97594.50;;;3.12;100.00
13867;BME280;7003;46.982;15.248;2023-02-18T03:44:37;97594.00;;;3.09;100.00
13867;BME280;7003;46.982;15.248;2023-02-18T03:47:06;97595.03;;;3.24;100.00
13867;BME280;7003;46.982;15.248;2023-02-18T03:49:33;97594.28;;;2.93;100.00
13867;BME280;7003;46.982;15.248;2023-02-18T03:52:03;97591.13;;;3.01;100.00
13867;BME280;7003;46.982;15.248;2023-02-18T03:54:31;97601.88;;;3.15;100.00
13867;BME280;7003;46.982;15.248;2023-02-18T03:57:01;97592.19;;;2.69;100.00
13867;BME280;7003;46.982;15.248;2023-02-18T03:59:31;97592.72;;;2.77;100.00
13867;BME280;7003;46.982;15.248;2023-02-18T04:02:00;97610.81;;;3.14;100.00
13867;BME280;7003;46.982;15.248;2023-02-18T04:04:31;97591.66;;;2.83;100.00
13867;BME280;7003;46.982;15.248;2023-02-18T04:07:00;97610.56;;;2.75;100.00
13867;BME280;7003;46.982;15.248;2023-02-18T04:09:28;97605.28;;;2.95;100.00
13867;BME280;7003;46.982;15.248;2023-02-18T04:11:56;97608.72;;;3.05;100.00
13867;BME280;7003;46.982;15.248;2023-02-18T04:14:25;97598.47;;;2.89;100.00
13867;BME280;7003;46.982;15.248;2023-02-18T04:16:53;97585.31;;;3.04;100.00
13867;BME280;7003;46.982;15.248;2023-02-18T04:19:21;97587.41;;;3.12;100.00
13867;BME280;7003;46.982;15.248;2023-02-18T04:21:51;97587.69;;;3.05;100.00
13867;BME280;7003;46.982;15.248;2023-02-18T04:24:18;97593.94;;;3.30;100.00
13867;BME280;7003;46.982;15.248;2023-02-18T04:26:45;97575.59;;;3.15;100.00
13867;BME280;7003;46.982;15.248;2023-02-18T04:29:14;97584.75;;;3.22;100.00
13867;BME280;7003;46.982;15.248;2023-02-18T04:31:41;97590.03;;;3.12;100.00
13867;BME280;7003;46.982;15.248;2023-02-18T04:34:08;97576.66;;;2.98;100.00
13867;BME280;7003;46.982;15.248;2023-02-18T04:36:37;97582.44;;;3.00;100.00
13867;BME280;7003;46.982;15.248;2023-02-18T04:39:05;97589.81;;;2.83;100.00
13867;BME280;7003;46.982;15.248;2023-02-18T04:41:35;97594.00;;;2.99;100.00
13867;BME280;7003;46.982;15.248;2023-02-18T04:44:02;97586.13;;;2.74;100.00
13867;BME280;7003;46.982;15.248;2023-02-18T04:46:31;97596.38;;;2.81;100.00
13867;BME280;7003;46.982;15.248;2023-02-18T04:48:58;97581.63;;;2.95;100.00
13867;BME280;7003;46.982;15.248;2023-02-18T04:51:27;97603.44;;;2.95;100.00
13867;BME280;7003;46.982;15.248;2023-02-18T04:53:56;97589.81;;;2.83;100.00
13867;BME280;7003;46.982;15.248;2023-02-18T04:56:23;97594.53;;;2.66;100.00
13867;BME280;7003;46.982;15.248;2023-02-18T04:58:53;97599.78;;;2.56;100.00
13867;BME280;7003;46.982;15.248;2023-02-18T05:01:20;97594.53;;;2.56;100.00
13867;BME280;7003;46.982;15.248;2023-02-18T05:03:48;97598.50;;;2.68;100.00
13867;BME280;7003;46.982;15.248;2023-02-18T05:06:15;97593.22;;;2.74;100.00
13867;BME280;7003;46.982;15.248;2023-02-18T05:08:43;97586.66;;;3.01;100.00
13867;BME280;7003;46.982;15.248;2023-02-18T05:11:10;97581.91;;;2.98;100.00
13867;BME280;7003;46.982;15.248;2023-02-18T05:13:37;97593.69;;;3.21;100.00
13867;BME280;7003;46.982;15.248;2023-02-18T05:16:04;97591.34;;;3.25;100.00
13867;BME280;7003;46.982;15.248;2023-02-18T05:18:31;97604.94;;;3.47;100.00
13867;BME280;7003;46.982;15.248;2023-02-18T05:20:59;97598.69;;;3.28;100.00
13867;BME280;7003;46.982;15.248;2023-02-18T05:23:26;97606.88;;;3.06;100.00
13867;BME280;7003;46.982;15.248;2023-02-18T05:25:56;97596.91;;;2.88;100.00
13867;BME280;7003;46.982;15.248;2023-02-18T05:28:23;97606.31;;;3.24;100.00
13867;BME280;7003;46.982;15.248;2023-02-18T05:30:50;97600.84;;;2.90;100.00
13867;BME280;7003;46.982;15.248;2023-02-18T05:33:18;97611.63;;;2.94;100.00
13867;BME280;7003;46.982;15.248;2023-02-18T05:35:45;97610.31;;;3.01;100.00
13867;BME280;7003;46.982;15.248;2023-02-18T05:38:16;97605.03;;;2.91;100.00
13867;BME280;7003;46.982;15.248;2023-02-18T05:40:46;97596.09;;;3.07;100.00
13867;BME280;7003;46.982;15.248;2023-02-18T05:43:16;97595.56;;;3.05;100.00
13867;BME280;7003;46.982;15.248;2023-02-18T05:45:44;97611.31;;;3.10;100.00
13867;BME280;7003;46.982;15.248;2023-02-18T05:48:11;97603.97;;;3.02;100.00
13867;BME280;7003;46.982;15.248;2023-02-18T05:50:39;97616.59;;;2.95;100.00
13867;BME280;7003;46.982;15.248;2023-02-18T05:53:06;97616.06;;;3.03;100.00
13867;BME280;7003;46.982;15.248;2023-02-18T05:55:35;97613.69;;;3.17;100.00
13867;BME280;7003;46.982;15.248;2023-02-18T05:58:04;97622.03;;;3.44;100.00
13867;BME280;7003;46.982;15.248;2023-02-18T06:00:36;97612.63;;;3.28;100.00
13867;BME280;7003;46.982;15.248;2023-02-18T06:03:10;97612.38;;;3.25;100.00
13867;BME280;7003;46.982;15.248;2023-02-18T06:05:40;97620.03;;;3.01;100.00
13867;BME280;7003;46.982;15.248;2023-02-18T06:08:09;97617.16;;;2.77;100.00
13867;BME280;7003;46.982;15.248;2023-02-18T06:10:42;97636.03;;;2.79;100.00
13867;BME280;7003;46.982;15.248;2023-02-18T06:13:15;97631.06;;;2.83;100.00
13867;BME280;7003;46.982;15.248;2023-02-18T06:15:48;97629.50;;;2.77;100.00
13867;BME280;7003;46.982;15.248;2023-02-18T06:18:24;97628.69;;;2.81;100.00
13867;BME280;7003;46.982;15.248;2023-02-18T06:20:56;97623.16;;;2.98;100.00
13867;BME280;7003;46.982;15.248;2023-02-18T06:23:25;97632.09;;;3.07;100.00
13867;BME280;7003;46.982;15.248;2023-02-18T06:25:56;97624.75;;;2.89;100.00
13867;BME280;7003;46.982;15.248;2023-02-18T06:28:24;97626.84;;;2.77;100.00
13867;BME280;7003;46.982;15.248;2023-02-18T06:30:52;97631.06;;;2.78;100.00
13867;BME280;7003;46.982;15.248;2023-02-18T06:33:22;97641.31;;;2.84;100.00
13867;BME280;7003;46.982;15.248;2023-02-18T06:35:55;97635.28;;;2.79;100.00
13867;BME280;7003;46.982;15.248;2023-02-18T06:38:23;97634.22;;;2.75;100.00
13867;BME280;7003;46.982;15.248;2023-02-18T06:40:51;97643.16;;;2.84;100.00
13867;BME280;7003;46.982;15.248;2023-02-18T06:43:22;97635.78;;;3.06;100.00
13867;BME280;7003;46.982;15.248;2023-02-18T06:45:50;97626.28;;;3.30;100.00
13867;BME280;7003;46.982;15.248;2023-02-18T06:48:17;97641.50;;;3.43;100.00
13867;BME280;7003;46.982;15.248;2023-02-18T06:50:45;97628.44;;;3.08;100.00
13867;BME280;7003;46.982;15.248;2023-02-18T06:53:13;97646.28;;;3.11;100.00
13867;BME280;7003;46.982;15.248;2023-02-18T06:55:42;97644.47;;;2.91;100.00
13867;BME280;7003;46.982;15.248;2023-02-18T06:58:11;97652.88;;;3.08;100.00
13867;BME280;7003;46.982;15.248;2023-02-18T07:00:46;97651.28;;;2.82;100.00
13867;BME280;7003;46.982;15.248;2023-02-18T07:03:14;97646.28;;;2.91;100.00
13867;BME280;7003;46.982;15.248;2023-02-18T07:05:44;97638.41;;;2.91;100.00
13867;BME280;7003;46.982;15.248;2023-02-18T07:08:12;97651.28;;;3.23;100.00
13867;BME280;7003;46.982;15.248;2023-02-18T07:10:42;97652.59;;;3.20;100.00
13867;BME280;7003;46.982;15.248;2023-02-18T07:13:11;97660.47;;;3.20;100.00
13867;BME280;7003;46.982;15.248;2023-02-18T07:15:38;97646.28;;;2.96;100.00
13867;BME280;7003;46.982;15.248;2023-02-18T07:18:08;97655.47;;;3.24;100.00
13867;BME280;7003;46.982;15.248;2023-02-18T07:20:38;97647.34;;;3.00;100.00
13867;BME280;7003;46.982;15.248;2023-02-18T07:23:06;97642.63;;;3.07;100.00
13867;BME280;7003;46.982;15.248;2023-02-18T07:25:33;97650.22;;;3.24;100.00
13867;BME280;7003;46.982;15.248;2023-02-18T07:28:01;97659.94;;;3.38;100.00
13867;BME280;7003;46.982;15.248;2023-02-18T07:30:29;97658.06;;;3.44;100.00
13867;BME280;7003;46.982;15.248;2023-02-18T07:32:59;97664.53;;;3.92;100.00
13867;BME280;7003;46.982;15.248;2023-02-18T07:35:29;97658.69;;;3.95;100.00
13867;BME280;7003;46.982;15.248;2023-02-18T07:38:00;97654.69;;;4.13;100.00
13867;BME280;7003;46.982;15.248;2023-02-18T07:40:28;97659.41;;;4.16;100.00
13867;BME280;7003;46.982;15.248;2023-02-18T07:42:56;97674.88;;;4.33;100.00
13867;BME280;7003;46.982;15.248;2023-02-18T07:45:24;97664.03;;;4.39;100.00
13867;BME280;7003;46.982;15.248;2023-02-18T07:47:52;97665.97;;;4.68;100.00
13867;BME280;7003;46.982;15.248;2023-02-18T07:50:22;97681.97;;;4.76;100.00
13867;BME280;7003;46.982;15.248;2023-02-18T07:52:54;97673.59;;;4.69;100.00
13867;BME280;7003;46.982;15.248;2023-02-18T07:55:21;97674.06;;;4.76;100.00
13867;BME280;7003;46.982;15.248;2023-02-18T07:57:49;97676.75;;;5.05;100.00
13867;BME280;7003;46.982;15.248;2023-02-18T08:00:29;97677.47;;;5.16;100.00
13867;BME280;7003;46.982;15.248;2023-02-18T08:02:57;97673.03;;;5.40;100.00
13867;BME280;7003;46.982;15.248;2023-02-18T08:05:25;97692.81;;;5.66;100.00
13867;BME280;7003;46.982;15.248;2023-02-18T08:07:55;97681.03;;;5.82;100.00
13867;BME280;7003;46.982;15.248;2023-02-18T08:10:25;97687.13;;;6.31;100.00
13867;BME280;7003;46.982;15.248;2023-02-18T08:12:53;97684.41;;;6.54;100.00
13867;BME280;7003;46.982;15.248;2023-02-18T08:15:22;97682.34;;;6.89;100.00
13867;BME280;7003;46.982;15.248;2023-02-18T08:17:53;97679.50;;;7.18;100.00
13867;BME280;7003;46.982;15.248;2023-02-18T08:20:21;97674.00;;;7.47;100.00
13867;BME280;7003;46.982;15.248;2023-02-18T08:22:49;97680.59;;;7.63;100.00
13867;BME280;7003;46.982;15.248;2023-02-18T08:25:18;97669.53;;;7.88;100.00
13867;BME280;7003;46.982;15.248;2023-02-18T08:27:46;97676.28;;;8.22;100.00
13867;BME280;7003;46.982;15.248;2023-02-18T08:30:14;97691.09;;;8.36;100.00
13867;BME280;7003;46.982;15.248;2023-02-18T08:32:42;97681.00;;;8.38;100.00
13867;BME280;7003;46.982;15.248;2023-02-18T08:35:10;97681.19;;;8.42;100.00
13867;BME280;7003;46.982;15.248;2023-02-18T08:37:38;97674.38;;;8.63;100.00
13867;BME280;7003;46.982;15.248;2023-02-18T08:40:08;97668.38;;;8.94;100.00
13867;BME280;7003;46.982;15.248;2023-02-18T08:42:40;97677.75;;;9.22;100.00
13867;BME280;7003;46.982;15.248;2023-02-18T08:45:08;97665.00;;;9.55;100.00
13867;BME280;7003;46.982;15.248;2023-02-18T08:47:38;97669.50;;;9.85;100.00
13867;BME280;7003;46.982;15.248;2023-02-18T08:50:09;97667.78;;;10.20;100.00
13867;BME280;7003;46.982;15.248;2023-02-18T08:52:37;97669.09;;;10.49;100.00
13867;BME280;7003;46.982;15.248;2023-02-18T08:55:06;97673.31;;;10.58;100.00
13867;BME280;7003;46.982;15.248;2023-02-18T08:57:36;97660.47;;;11.03;100.00
13867;BME280;7003;46.982;15.248;2023-02-18T09:00:06;97683.63;;;11.29;100.00
13867;BME280;7003;46.982;15.248;2023-02-18T09:02:37;97669.06;;;11.35;100.00
13867;BME280;7003;46.982;15.248;2023-02-18T09:05:05;97669.28;;;11.68;100.00
13867;BME280;7003;46.982;15.248;2023-02-18T09:07:37;97664.53;;;11.90;100.00
13867;BME280;7003;46.982;15.248;2023-02-18T09:10:06;97664.25;;;12.13;100.00
13867;BME280;7003;46.982;15.248;2023-02-18T09:12:34;97653.63;;;12.33;100.00
13867;BME280;7003;46.982;15.248;2023-02-18T09:15:02;97654.88;;;12.78;100.00
13867;BME280;7003;46.982;15.248;2023-02-18T09:17:33;97650.56;;;13.06;100.00
13867;BME280;7003;46.982;15.248;2023-02-18T09:20:01;97659.72;;;13.38;100.00
13867;BME280;7003;46.982;15.248;2023-02-18T09:22:29;97633.56;;;13.43;100.00
13867;BME280;7003;46.982;15.248;2023-02-18T09:24:58;97637.84;;;13.81;98.40
13867;BME280;7003;46.982;15.248;2023-02-18T09:27:26;97644.19;;;14.13;91.83
13867;BME280;7003;46.982;15.248;2023-02-18T09:29:54;97645.19;;;14.45;87.79
13867;BME280;7003;46.982;15.248;2023-02-18T09:32:22;97635.00;;;14.62;89.42
13867;BME280;7003;46.982;15.248;2023-02-18T09:34:54;97632.19;;;14.99;87.96
13867;BME280;7003;46.982;15.248;2023-02-18T09:37:24;97649.38;;;15.26;86.63
13867;BME280;7003;46.982;15.248;2023-02-18T09:39:52;97649.31;;;15.38;80.91
13867;BME280;7003;46.982;15.248;2023-02-18T09:42:26;97647.09;;;15.40;79.25
13867;BME280;7003;46.982;15.248;2023-02-18T09:44:59;97646.53;;;15.62;76.69
13867;BME280;7003;46.982;15.248;2023-02-18T09:47:32;97636.59;;;15.94;74.43
13867;BME280;7003;46.982;15.248;2023-02-18T09:50:07;97633.25;;;16.16;71.66
13867;BME280;7003;46.982;15.248;2023-02-18T09:52:36;97636.41;;;16.38;72.36
13867;BME280;7003;46.982;15.248;2023-02-18T09:55:16;97634.63;;;16.61;68.02
13867;BME280;7003;46.982;15.248;2023-02-18T09:57:47;97625.16;;;16.67;67.17
13867;BME280;7003;46.982;15.248;2023-02-18T10:00:19;97622.69;;;16.97;67.09
13867;BME280;7003;46.982;15.248;2023-02-18T10:02:54;97619.13;;;17.31;66.23
13867;BME280;7003;46.982;15.248;2023-02-18T10:05:28;97621.75;;;17.51;63.84
13867;BME280;7003;46.982;15.248;2023-02-18T10:08:01;97616.78;;;17.72;62.45
13867;BME280;7003;46.982;15.248;2023-02-18T10:10:37;97617.69;;;17.60;61.32
13867;BME280;7003;46.982;15.248;2023-02-18T10:13:11;97616.00;;;17.29;60.40
13867;BME280;7003;46.982;15.248;2023-02-18T10:15:40;97601.66;;;17.22;62.55
13867;BME280;7003;46.982;15.248;2023-02-18T10:18:25;97601.31;;;17.23;64.60
13867;BME280;7003;46.982;15.248;2023-02-18T10:21:02;97602.63;;;17.10;63.25
13867;BME280;7003;46.982;15.248;2023-02-18T10:23:36;97596.59;;;16.98;65.66
13867;BME280;7003;46.982;15.248;2023-02-18T10:26:13;97593.03;;;17.32;63.98
13867;BME280;7003;46.982;15.248;2023-02-18T10:28:42;97581.19;;;17.82;61.42
13867;BME280;7003;46.982;15.248;2023-02-18T10:31:17;97580.88;;;18.14;60.31
13867;BME280;7003;46.982;15.248;2023-02-18T10:33:52;97575.53;;;18.73;58.17
13867;BME280;7003;46.982;15.248;2023-02-18T10:36:32;97562.63;;;18.56;55.60
13867;BME280;7003;46.982;15.248;2023-02-18T10:39:17;97565.53;;;19.11;57.98
13867;BME280;7003;46.982;15.248;2023-02-18T10:41:55;97566.88;;;19.31;55.60
13867;BME280;7003;46.982;15.248;2023-02-18T10:44:32;97550.31;;;19.77;57.25
13867;BME280;7003;46.982;15.248;2023-02-18T10:47:12;97545.16;;;20.16;56.13
13867;BME280;7003;46.982;15.248;2023-02-18T10:49:55;97545.78;;;20.57;55.78
13867;BME280;7003;46.982;15.248;2023-02-18T10:52:27;97540.50;;;20.96;55.26
13867;BME280;7003;46.982;15.248;2023-02-18T10:55:00;97532.88;;;21.37;53.86
13867;BME280;7003;46.982;15.248;2023-02-18T10:57:29;97529.38;;;21.54;52.43
13867;BME280;7003;46.982;15.248;2023-02-18T10:59:59;97532.31;;;20.71;47.71
13867;BME280;7003;46.982;15.248;2023-02-18T11:02:37;97516.13;;;20.74;48.44
13867;BME280;7003;46.982;15.248;2023-02-18T11:05:17;97517.97;;;19.84;49.71
13867;BME280;7003;46.982;15.248;2023-02-18T11:07:50;97508.59;;;19.64;51.44
13867;BME280;7003;46.982;15.248;2023-02-18T11:10:24;97504.03;;;19.71;50.80
13867;BME280;7003;46.982;15.248;2023-02-18T11:12:55;97498.84;;;19.48;50.45
13867;BME280;7003;46.982;15.248;2023-02-18T11:15:25;97495.47;;;19.62;50.46
13867;BME280;7003;46.982;15.248;2023-02-18T11:17:56;97481.25;;;19.21;48.20
13867;BME280;7003;46.982;15.248;2023-02-18T11:20:28;97478.63;;;19.28;49.06
13867;BME280;7003;46.982;15.248;2023-02-18T11:23:15;97474.19;;;19.06;48.57
13867;BME280;7003;46.982;15.248;2023-02-18T11:25:59;97470.16;;;19.84;49.86
13867;BME280;7003;46.982;15.248;2023-02-18T11:28:34;97456.91;;;20.38;47.94
13867;BME280;7003;46.982;15.248;2023-02-18T11:31:06;97451.59;;;20.52;46.81
13867;BME280;7003;46.982;15.248;2023-02-18T11:33:38;97454.66;;;20.54;47.46
13867;BME280;7003;46.982;15.248;2023-02-18T11:36:21;97445.03;;;20.63;46.62
13867;BME280;7003;46.982;15.248;2023-02-18T11:38:53;97429.16;;;20.41;48.75
13867;BME280;7003;46.982;15.248;2023-02-18T11:41:30;97422.31;;;19.74;49.85
13867;BME280;7003;46.982;15.248;2023-02-18T11:44:00;97419.84;;;19.48;51.41
13867;BME280;7003;46.982;15.248;2023-02-18T11:46:29;97411.91;;;18.70;50.67
13867;BME280;7003;46.982;15.248;2023-02-18T11:49:10;97409.13;;;17.96;52.81
13867;BME280;7003;46.982;15.248;2023-02-18T11:51:47;97405.38;;;17.71;55.41
13867;BME280;7003;46.982;15.248;2023-02-18T11:54:26;97406.41;;;17.37;58.94
13867;BME280;7003;46.982;15.248;2023-02-18T11:57:01;97400.00;;;17.18;58.24
13867;BME280;7003;46.982;15.248;2023-02-18T11:59:33;97395.50;;;16.77;59.31
13867;BME280;7003;46.982;15.248;2023-02-18T12:02:21;97390.56;;;16.60;60.78
13867;BME280;7003;46.982;15.248;2023-02-18T12:04:57;97381.88;;;16.66;60.58
13867;BME280;7003;46.982;15.248;2023-02-18T12:07:30;97379.25;;;16.47;62.18
13867;BME280;7003;46.982;15.248;2023-02-18T12:10:10;97372.31;;;16.46;62.50
13867;BME280;7003;46.982;15.248;2023-02-18T12:12:44;97371.41;;;16.38;62.82
13867;BME280;7003;46.982;15.248;2023-02-18T12:15:19;97366.66;;;16.74;61.39
13867;BME280;7003;46.982;15.248;2023-02-18T12:18:03;97367.78;;;16.73;63.62
13867;BME280;7003;46.982;15.248;2023-02-18T12:20:52;97355.25;;;16.58;61.80
13867;BME280;7003;46.982;15.248;2023-02-18T12:23:30;97352.19;;;16.36;62.16
13867;BME280;7003;46.982;15.248;2023-02-18T12:26:08;97330.63;;;16.75;60.69
13867;BME280;7003;46.982;15.248;2023-02-18T12:28:57;97329.81;;;16.29;63.15
13867;BME280;7003;46.982;15.248;2023-02-18T12:31:44;97324.53;;;16.32;63.05
13867;BME280;7003;46.982;15.248;2023-02-18T12:34:31;97315.09;;;16.42;61.16
13867;BME280;7003;46.982;15.248;2023-02-18T12:37:14;97311.88;;;16.10;63.66
13867;BME280;7003;46.982;15.248;2023-02-18T12:40:01;97293.75;;;15.84;64.09
13867;BME280;7003;46.982;15.248;2023-02-18T12:42:48;97280.91;;;15.74;63.92
13867;BME280;7003;46.982;15.248;2023-02-18T12:45:35;97295.72;;;15.49;62.77
13867;BME280;7003;46.982;15.248;2023-02-18T12:48:24;97286.84;;;15.45;62.22
13867;BME280;7003;46.982;15.248;2023-02-18T12:51:27;97295.97;;;15.59;62.56
13867;BME280;7003;46.982;15.248;2023-02-18T12:54:16;97284.91;;;15.61;62.69
13867;BME280;7003;46.982;15.248;2023-02-18T12:57:09;97267.59;;;15.58;62.88
13867;BME280;7003;46.982;15.248;2023-02-18T13:05:48;97277.44;;;15.93;63.08
13867;BME280;7003;46.982;15.248;2023-02-18T13:08:34;97293.75;;;15.46;62.64
13867;BME280;7003;46.982;15.248;2023-02-18T13:11:23;97281.72;;;15.55;64.62
13867;BME280;7003;46.982;15.248;2023-02-18T13:14:01;97286.78;;;15.60;62.65
13867;BME280;7003;46.982;15.248;2023-02-18T13:16:33;97277.59;;;15.23;63.49
13867;BME280;7003;46.982;15.248;2023-02-18T13:19:13;97274.63;;;15.09;64.72
13867;BME280;7003;46.982;15.248;2023-02-18T13:21:46;97265.13;;;14.95;66.64
13867;BME280;7003;46.982;15.248;2023-02-18T13:24:23;97273.50;;;15.10;68.40
13867;BME280;7003;46.982;15.248;2023-02-18T13:26:59;97269.72;;;14.95;67.41
13867;BME280;7003;46.982;15.248;2023-02-18T13:29:32;97285.31;;;14.74;69.33
13867;BME280;7003;46.982;15.248;2023-02-18T13:32:10;97270.72;;;14.71;66.69
13867;BME280;7003;46.982;15.248;2023-02-18T13:34:45;97264.44;;;14.16;66.09
13867;BME280;7003;46.982;15.248;2023-02-18T13:37:21;97245.09;;;14.07;65.52
13867;BME280;7003;46.982;15.248;2023-02-18T13:39:54;97245.94;;;13.80;64.03
13867;BME280;7003;46.982;15.248;2023-02-18T13:42:31;97242.41;;;13.76;64.71